Aeroporto :
LOGIN :

Iscrizione | Disclaimer

   EN    FR    IT 

 










Sommario :    VFR   VFR Marginale   IFR   IFR Intensivo   IFR Molto Intensivo
Visibilità : 
Base nubi : 
>= 8 km
>= 3000ft
5 / 8 km
1000 / 3000 ft
1500m / 5 km
500 / 1000 ft
800 / 1500m
200 / 500 ft
< 800m
< 200 ft
Simboli :   Temporali  Nebbia  Neve Forte  Precipitazioni Forti  Vento > 20 kt
SIGMETs :   Varie  Temporali  Ghiacco  Turbolenza  Onda orograficha  Ceneri Vulcaniche






- Altitudine del aeroporto : 233 ft
- Codice IATA : REU


LERS - Reus Tarragona

ULTIMO METAR :
  • 280030Z AUTO VRB04KT CAVOK 16/06 Q1018

METARs OBSOLETI :
  • 280000Z AUTO 13005KT CAVOK 16/05 Q1018
  • 272330Z AUTO 27009G19KT 220V330 CAVOK 17/06 Q1017
  • 272300Z AUTO 26012G24KT 230V290 CAVOK 17/05 Q1017
  • 272230Z AUTO 25012KT 230V290 CAVOK 17/05 Q1016
  • 272200Z AUTO 27016KT 230V290 CAVOK 18/05 Q1016

TAF AMD TAF LERS
Valido dal 28 a 00 ore il 28 a 21 ore UTC


280013Z 2800/2821 28012G22KT CAVOK TX18/2813Z TN08/2806Z
TEMPO 2800/2801 VRB04KT
PROB40
TEMPO 2800/2806 27015G25KT
TEMPO 2806/2810 VRB05KT
BECMG 2810/2812 13008KT



MetMap, La meteo Aeronautica in un colpo d'occhio ! - Copyright ORBIFLY Dicembre 2007 - Disclaimer

ORBIFLY MET'MAP TEAM :

Programmazione e sviluppo : Alexandra Zaïnal
Concezione : Baudouin d'Aumeries
Aiuto per la programmazione : Marc-Olivier Méhu
Supporto tecnico e logistico : Manuel Goepfert
Aiuto per la traduzione : Arnaldo La Scala

Contatto : metmap@orbifly.com




FONTI E CREDITI :

   NOAA